Time;durP1;ratioP1;P1;durP2;ratioP2;P2;SDS_P1;SDS_P2;PMS_P1;PMS_P2;Temp;Humidity;BMP_temperature;BMP_pressure;BME280_temperature;BME280_humidity;BME280_pressure;Samples;Min_cycle;Max_cycle;Signal;HPM_P1;HPM_P2
2024/04/21 00:01:44;;;;;;;4.82;3.85;;;;;;;10.35;59.78;94309.41;5481878;26;19995;-73
2024/04/21 00:04:09;;;;;;;5.88;4.40;;;;;;;10.28;59.85;94306.94;5479334;26;20031;-74
2024/04/21 00:06:34;;;;;;;5.88;4.70;;;;;;;10.28;59.77;94297.94;5483195;26;20067;-74
2024/04/21 00:09:00;;;;;;;5.78;4.05;;;;;;;10.32;59.57;94299.34;5481712;26;20070;-74
2024/04/21 00:11:25;;;;;;;4.25;3.70;;;;;;;10.33;59.76;94302.84;5482523;26;19991;-73
2024/04/21 00:13:50;;;;;;;4.38;3.72;;;;;;;10.35;59.89;94303.16;5450609;26;20002;-74
2024/04/21 00:16:16;;;;;;;4.90;4.40;;;;;;;10.30;60.23;94295.50;5479718;26;20340;-74
2024/04/21 00:18:41;;;;;;;5.53;4.10;;;;;;;10.30;60.14;94301.75;5486017;26;19990;-74
2024/04/21 00:21:07;;;;;;;5.43;4.35;;;;;;;10.33;60.25;94298.13;5484282;26;20120;-73
2024/04/21 00:23:36;;;;;;;5.25;4.75;;;;;;;10.34;59.89;94305.13;5485040;26;20009;-74
2024/04/21 00:26:02;;;;;;;5.82;4.65;;;;;;;10.30;59.78;94301.00;5484630;26;20353;-74
2024/04/21 00:28:30;;;;;;;6.53;4.10;;;;;;;10.25;59.66;94302.34;5484123;26;20009;-74
2024/04/21 00:30:55;;;;;;;5.70;4.03;;;;;;;10.22;59.16;94302.47;5485732;26;20035;-74
2024/04/21 00:33:20;;;;;;;4.53;3.60;;;;;;;10.29;58.92;94302.97;5452621;26;19998;-73
2024/04/21 00:35:46;;;;;;;4.43;3.92;;;;;;;10.19;59.13;94306.84;5484566;26;20029;-74
2024/04/21 00:38:11;;;;;;;4.00;3.50;;;;;;;10.20;59.00;94305.63;5482725;26;20020;-73
2024/04/21 00:40:37;;;;;;;5.90;4.50;;;;;;;10.20;59.24;94311.13;5485178;26;20299;-74
2024/04/21 00:43:04;;;;;;;4.80;3.72;;;;;;;10.21;59.26;94312.69;5484448;26;20336;-75
2024/04/21 00:45:29;;;;;;;5.10;4.18;;;;;;;10.21;59.43;94314.66;5485804;26;20062;-73
2024/04/21 00:47:55;;;;;;;5.45;3.92;;;;;;;10.18;59.27;94310.06;5483383;26;20006;-73
2024/04/21 00:50:22;;;;;;;4.90;4.18;;;;;;;10.18;59.28;94312.81;5483421;26;20026;-74
2024/04/21 00:52:47;;;;;;;6.80;4.53;;;;;;;10.13;59.29;94310.63;5453529;26;20503;-75
2024/04/21 00:55:13;;;;;;;5.93;4.30;;;;;;;10.14;59.68;94309.41;5452230;26;20005;-74
2024/04/21 00:57:38;;;;;;;7.57;4.40;;;;;;;10.12;59.89;94307.13;5484403;26;19994;-75
2024/04/21 01:00:04;;;;;;;6.85;5.07;;;;;;;10.11;59.62;94305.59;5482193;26;20066;-75
2024/04/21 01:02:30;;;;;;;5.20;4.68;;;;;;;10.07;60.20;94313.94;5484202;26;19994;-75
2024/04/21 01:04:58;;;;;;;5.57;4.85;;;;;;;10.09;59.83;94310.75;5484742;26;20002;-75
2024/04/21 01:07:24;;;;;;;5.68;4.35;;;;;;;10.08;60.03;94309.22;5483521;26;19995;-75
2024/04/21 01:09:49;;;;;;;6.75;4.80;;;;;;;10.04;60.14;94303.88;5483560;26;20436;-74
2024/04/21 01:12:14;;;;;;;8.90;5.28;;;;;;;10.02;60.25;94308.28;5482473;26;20005;-74
2024/04/21 01:14:40;;;;;;;6.30;4.88;;;;;;;9.99;60.61;94309.19;5485860;26;19994;-74
2024/04/21 01:17:05;;;;;;;7.03;5.55;;;;;;;10.00;60.52;94316.97;5482171;26;19998;-74
2024/04/21 01:19:31;;;;;;;6.95;5.10;;;;;;;9.94;60.87;94318.75;5484103;26;19998;-74
2024/04/21 01:21:56;;;;;;;6.82;5.00;;;;;;;9.91;61.03;94310.63;5484357;26;20058;-74
2024/04/21 01:24:21;;;;;;;5.53;4.57;;;;;;;9.88;60.91;94309.56;5483684;26;20017;-74
2024/04/21 01:26:47;;;;;;;6.75;4.32;;;;;;;9.96;61.24;94312.81;5484327;26;20025;-74
2024/04/21 01:29:12;;;;;;;5.82;3.92;;;;;;;9.99;61.12;94320.94;5483729;26;20067;-74
2024/04/21 01:31:38;;;;;;;6.90;4.43;;;;;;;9.96;61.34;94310.06;5483702;26;19998;-74
2024/04/21 01:34:03;;;;;;;9.73;5.13;;;;;;;9.82;61.38;94292.91;5482263;26;20317;-75
2024/04/21 01:36:28;;;;;;;6.72;5.40;;;;;;;9.88;61.83;94306.81;5453381;26;20389;-75
2024/04/21 01:38:54;;;;;;;7.93;5.07;;;;;;;9.87;61.40;94304.53;5481897;26;20067;-74
2024/04/21 01:41:19;;;;;;;6.03;4.35;;;;;;;9.91;60.90;94310.63;5483929;26;19998;-74
2024/04/21 01:43:44;;;;;;;5.82;4.57;;;;;;;9.87;60.79;94304.53;5484357;26;21001;-74
2024/04/21 01:46:10;;;;;;;6.40;4.72;;;;;;;9.85;60.52;94302.22;5485200;26;20006;-74
2024/04/21 01:48:35;;;;;;;6.18;5.03;;;;;;;9.74;60.71;94288.88;5483431;26;20006;-74
2024/04/21 01:51:00;;;;;;;5.72;4.72;;;;;;;9.76;60.84;94291.94;5482744;26;20005;-75
2024/04/21 01:53:26;;;;;;;6.00;4.50;;;;;;;9.75;60.86;94301.41;5485538;26;20005;-75
2024/04/21 01:55:51;;;;;;;5.97;4.60;;;;;;;9.78;60.95;94302.47;5483977;26;20006;-75
2024/04/21 01:58:16;;;;;;;5.40;4.55;;;;;;;9.73;61.17;94294.81;5483666;26;19994;-75
2024/04/21 02:00:42;;;;;;;5.85;4.53;;;;;;;9.73;61.25;94294.81;5483746;26;19998;-74
2024/04/21 02:03:07;;;;;;;6.07;4.97;;;;;;;9.69;61.21;94294.97;5483724;26;20008;-74
2024/04/21 02:05:33;;;;;;;6.32;4.55;;;;;;;9.69;61.24;94300.44;5482310;26;20390;-74
2024/04/21 02:07:58;;;;;;;7.32;5.55;;;;;;;9.70;61.36;94301.97;5484540;26;19998;-74
2024/04/21 02:10:23;;;;;;;6.32;4.68;;;;;;;9.67;61.35;94300.09;5484812;26;19994;-75
2024/04/21 02:12:49;;;;;;;5.65;4.68;;;;;;;9.16;62.98;94303.03;5483573;26;20407;-74
2024/04/21 02:15:14;;;;;;;5.57;4.95;;;;;;;9.04;63.44;94293.63;5485120;26;19994;-74
2024/04/21 02:17:41;;;;;;;6.40;4.72;;;;;;;8.91;63.84;94292.91;5481749;26;20418;-74
2024/04/21 02:20:07;;;;;;;6.00;5.20;;;;;;;9.08;63.60;94301.75;5483383;26;19994;-74
2024/04/21 02:22:33;;;;;;;5.60;4.57;;;;;;;8.93;63.79;94286.97;5481356;26;20005;-74
2024/04/21 02:24:58;;;;;;;7.30;4.53;;;;;;;8.76;64.21;94283.59;5482113;26;20448;-75
2024/04/21 02:27:23;;;;;;;7.45;5.30;;;;;;;8.74;64.13;94289.53;5482126;26;19990;-74
2024/04/21 02:29:49;;;;;;;6.07;5.15;;;;;;;8.56;64.78;94288.56;5486778;26;19999;-75
2024/04/21 02:32:14;;;;;;;6.10;5.22;;;;;;;8.44;65.07;94281.88;5484838;26;20332;-74
2024/04/21 02:34:39;;;;;;;8.90;5.45;;;;;;;8.52;65.37;94283.19;5483121;26;19998;-74
2024/04/21 02:37:05;;;;;;;8.00;5.25;;;;;;;8.62;65.03;94281.31;5483464;26;20005;-74
2024/04/21 02:39:30;;;;;;;7.95;4.70;;;;;;;8.63;65.19;94278.13;5483070;26;20297;-74
2024/04/21 02:41:56;;;;;;;7.55;5.57;;;;;;;8.64;65.11;94276.16;5483211;26;20062;-74
2024/04/21 02:44:21;;;;;;;6.68;5.78;;;;;;;8.60;65.25;94276.28;5481510;26;19994;-74
2024/04/21 02:46:47;;;;;;;7.57;5.90;;;;;;;8.48;65.53;94288.00;5482895;26;20382;-74
2024/04/21 02:49:13;;;;;;;12.45;6.50;;;;;;;8.36;66.03;94284.03;5482613;26;20090;-74
2024/04/21 02:51:38;;;;;;;8.05;5.60;;;;;;;8.29;65.92;94278.75;5481875;26;19997;-74
2024/04/21 02:54:04;;;;;;;9.50;5.90;;;;;;;8.42;65.80;94284.28;5483151;26;19994;-76
2024/04/21 02:56:29;;;;;;;7.25;5.53;;;;;;;8.48;65.61;94280.53;5482766;26;19998;-74
2024/04/21 02:58:55;;;;;;;7.53;5.63;;;;;;;8.58;65.46;94278.69;5483203;26;20006;-74
2024/04/21 03:01:20;;;;;;;7.88;5.90;;;;;;;8.63;65.53;94271.88;5482703;26;20009;-73
2024/04/21 03:03:48;;;;;;;7.10;5.72;;;;;;;8.71;65.05;94279.41;5482753;26;20030;-72
2024/04/21 03:06:14;;;;;;;7.18;5.60;;;;;;;8.72;64.95;94278.25;5451406;26;20006;-73
2024/04/21 03:08:41;;;;;;;8.75;6.20;;;;;;;8.74;64.83;94286.00;5483444;26;20504;-75
2024/04/21 03:11:07;;;;;;;10.25;6.30;;;;;;;8.80;65.07;94278.00;5452577;26;19998;-75
2024/04/21 03:13:33;;;;;;;7.65;6.05;;;;;;;8.82;65.01;94273.59;5482521;26;20014;-74
2024/04/21 03:16:04;;;;;;;9.15;5.82;;;;;;;8.89;64.61;94283.56;5484741;26;20356;-74
2024/04/21 03:18:29;;;;;;;7.55;5.90;;;;;;;8.90;64.59;94271.41;5481009;26;20013;-73
2024/04/21 03:20:56;;;;;;;7.43;5.72;;;;;;;8.96;64.34;94280.59;5482338;26;19998;-75
2024/04/21 03:23:25;;;;;;;8.60;6.30;;;;;;;8.93;64.64;94281.47;5450713;26;20022;-73
2024/04/21 03:25:50;;;;;;;8.13;6.43;;;;;;;8.97;64.45;94282.13;5480516;26;19998;-73
2024/04/21 03:28:16;;;;;;;9.50;6.55;;;;;;;8.99;64.60;94282.44;5483429;26;20066;-73
2024/04/21 03:30:41;;;;;;;7.32;6.63;;;;;;;8.98;64.52;94278.94;5482285;26;20010;-74
2024/04/21 03:33:08;;;;;;;7.05;5.80;;;;;;;9.02;64.44;94281.56;5484406;26;20368;-72
2024/04/21 03:35:33;;;;;;;7.38;5.43;;;;;;;9.01;64.47;94271.81;5451232;26;20009;-73
2024/04/21 03:37:59;;;;;;;9.65;6.22;;;;;;;9.04;64.37;94268.19;5481784;26;19994;-73
2024/04/21 03:40:24;;;;;;;7.25;5.90;;;;;;;9.11;64.20;94278.91;5480519;26;20006;-73
2024/04/21 03:42:49;;;;;;;8.57;6.50;;;;;;;9.14;64.47;94278.03;5451147;26;19995;-75
2024/04/21 03:45:15;;;;;;;7.88;6.00;;;;;;;9.13;64.55;94273.75;5482716;26;20436;-74
2024/04/21 03:47:40;;;;;;;9.63;6.47;;;;;;;9.12;64.22;94268.69;5480636;26;19994;-75
2024/04/21 03:50:06;;;;;;;8.45;6.45;;;;;;;9.19;64.35;94273.97;5451808;26;20012;-75
2024/04/21 03:52:34;;;;;;;9.93;7.00;;;;;;;9.19;64.03;94274.72;5450007;26;20490;-75
2024/04/21 03:55:00;;;;;;;9.05;7.10;;;;;;;9.17;64.04;94279.88;5487060;26;19990;-73
2024/04/21 03:57:29;;;;;;;9.63;7.35;;;;;;;9.15;64.15;94279.56;5485302;26;20721;-73
2024/04/21 03:59:58;;;;;;;8.25;7.00;;;;;;;9.11;63.82;94278.16;5486871;26;20002;-75
2024/04/21 04:02:23;;;;;;;8.07;6.82;;;;;;;9.16;63.86;94289.31;5486260;26;20465;-74
2024/04/21 04:04:48;;;;;;;7.80;6.43;;;;;;;9.17;63.13;94282.63;5483837;26;19994;-74
2024/04/21 04:07:14;;;;;;;10.13;6.75;;;;;;;9.13;62.95;94284.72;5487062;26;19998;-74
2024/04/21 04:09:39;;;;;;;7.10;5.45;;;;;;;9.03;62.93;94283.88;5484867;26;19998;-74
2024/04/21 04:12:04;;;;;;;8.55;6.50;;;;;;;9.08;62.22;94290.78;5487100;26;20345;-74
2024/04/21 04:14:30;;;;;;;6.97;5.78;;;;;;;9.07;62.23;94292.00;5483067;26;19990;-74
2024/04/21 04:16:55;;;;;;;8.23;5.63;;;;;;;8.97;62.03;94299.34;5486755;26;20006;-74
2024/04/21 04:19:21;;;;;;;9.60;6.00;;;;;;;9.01;62.02;94305.50;5483386;26;20010;-74
2024/04/21 04:21:46;;;;;;;7.88;5.15;;;;;;;9.00;61.87;94308.66;5484201;26;20000;-74
2024/04/21 04:24:11;;;;;;;6.95;5.38;;;;;;;8.95;61.81;94317.47;5484239;26;20001;-73
2024/04/21 04:26:37;;;;;;;6.78;4.95;;;;;;;8.86;61.85;94314.59;5482825;26;20353;-74
2024/04/21 04:29:02;;;;;;;6.18;5.13;;;;;;;8.88;62.35;94312.94;5486651;26;20002;-74
2024/04/21 04:31:27;;;;;;;9.32;5.82;;;;;;;8.93;62.19;94320.63;5484320;26;20009;-74
2024/04/21 04:33:53;;;;;;;9.15;6.13;;;;;;;8.98;61.86;94322.81;5454158;26;19994;-74
2024/04/21 04:36:18;;;;;;;8.57;6.80;;;;;;;8.91;62.49;94325.78;5484535;26;20006;-74
2024/04/21 04:38:43;;;;;;;11.30;7.32;;;;;;;8.92;62.40;94332.03;5484299;26;19998;-74
2024/04/21 04:41:09;;;;;;;12.02;6.15;;;;;;;8.93;62.42;94323.34;5485909;26;19998;-74
2024/04/21 04:43:34;;;;;;;11.45;6.78;;;;;;;8.90;62.38;94316.03;5483314;26;20309;-73
2024/04/21 04:45:59;;;;;;;8.15;6.68;;;;;;;8.93;62.43;94317.13;5486216;26;20437;-74
2024/04/21 04:48:25;;;;;;;9.43;6.80;;;;;;;8.91;62.19;94320.31;5482050;26;20006;-74
2024/04/21 04:50:50;;;;;;;8.57;7.30;;;;;;;8.93;62.19;94326.09;5486688;26;19994;-74
2024/04/21 04:53:16;;;;;;;9.60;7.22;;;;;;;8.91;61.77;94327.75;5482669;26;19998;-74
2024/04/21 04:55:42;;;;;;;10.20;7.00;;;;;;;8.90;61.67;94326.22;5484007;26;19998;-74
2024/04/21 04:58:09;;;;;;;8.32;5.88;;;;;;;8.95;61.57;94326.44;5483235;26;20018;-73
2024/04/21 05:00:34;;;;;;;8.82;6.93;;;;;;;9.01;61.59;94330.16;5485095;26;20434;-73
2024/04/21 05:02:59;;;;;;;7.78;6.20;;;;;;;9.04;61.20;94334.75;5483923;26;20014;-73
2024/04/21 05:05:25;;;;;;;8.18;6.10;;;;;;;8.94;61.58;94329.59;5481382;26;19998;-75
2024/04/21 05:07:50;;;;;;;7.00;5.70;;;;;;;8.97;61.79;94323.25;5486293;26;19998;-73
2024/04/21 05:10:16;;;;;;;9.13;6.65;;;;;;;9.03;61.90;94332.47;5482478;26;20002;-74
2024/04/21 05:12:42;;;;;;;9.05;6.28;;;;;;;9.01;61.75;94335.66;5483804;26;19998;-74
2024/04/21 05:15:07;;;;;;;7.10;6.03;;;;;;;9.11;61.46;94339.22;5482712;26;19994;-74
2024/04/21 05:17:32;;;;;;;8.32;6.35;;;;;;;9.17;61.40;94336.69;5483497;26;20005;-74
2024/04/21 05:19:58;;;;;;;8.32;6.32;;;;;;;9.23;61.41;94341.19;5485071;26;20333;-72
2024/04/21 05:22:23;;;;;;;10.02;7.05;;;;;;;9.25;61.51;94332.53;5484318;26;20005;-73
2024/04/21 05:24:49;;;;;;;10.10;6.53;;;;;;;9.28;61.42;94354.34;5482975;26;20009;-73
2024/04/21 05:27:14;;;;;;;7.95;6.20;;;;;;;9.30;61.69;94338.22;5483674;26;19995;-75
2024/04/21 05:29:39;;;;;;;11.48;6.53;;;;;;;9.42;61.30;94344.88;5483606;26;20397;-74
2024/04/21 05:32:05;;;;;;;9.90;6.80;;;;;;;9.49;61.10;94343.88;5482124;26;20009;-73
2024/04/21 05:34:30;;;;;;;10.90;6.75;;;;;;;9.52;60.98;94349.25;5483352;26;20009;-74
2024/04/21 05:36:56;;;;;;;9.80;7.05;;;;;;;9.58;61.21;94354.94;5484452;26;20066;-74
2024/04/21 05:39:23;;;;;;;9.80;6.88;;;;;;;9.67;60.88;94359.72;5484845;26;20005;-73
2024/04/21 05:41:48;;;;;;;9.23;6.68;;;;;;;9.74;60.54;94353.97;5483451;26;20027;-74
2024/04/21 05:44:13;;;;;;;7.43;6.32;;;;;;;9.82;60.60;94361.53;5484089;26;20006;-74
2024/04/21 05:46:39;;;;;;;11.27;7.53;;;;;;;9.87;60.62;94359.44;5483813;26;19998;-73
2024/04/21 05:49:04;;;;;;;8.80;7.18;;;;;;;9.97;60.01;94352.78;5451347;26;20017;-74
2024/04/21 05:51:30;;;;;;;10.05;7.75;;;;;;;10.07;60.00;94355.16;5485311;26;20421;-73
2024/04/21 05:53:55;;;;;;;9.80;7.95;;;;;;;10.16;59.64;94354.47;5484161;26;19998;-74
2024/04/21 05:56:20;;;;;;;9.50;7.47;;;;;;;10.20;59.79;94360.56;5485262;26;19994;-74
2024/04/21 05:58:46;;;;;;;10.35;7.72;;;;;;;10.33;59.75;94358.56;5482984;26;20078;-74
2024/04/21 06:01:12;;;;;;;10.48;7.28;;;;;;;10.40;59.84;94349.28;5483500;26;20066;-74
2024/04/21 06:03:37;;;;;;;11.20;7.20;;;;;;;10.53;59.61;94349.19;5484556;26;20066;-74
2024/04/21 06:06:03;;;;;;;9.07;7.15;;;;;;;10.66;59.40;94357.34;5450949;26;19994;-74
2024/04/21 06:08:28;;;;;;;8.75;7.50;;;;;;;10.75;59.33;94344.41;5482833;26;20553;-75
2024/04/21 06:10:53;;;;;;;12.38;7.30;;;;;;;10.86;58.93;94350.25;5482869;26;20070;-75
2024/04/21 06:13:19;;;;;;;10.63;7.32;;;;;;;10.90;58.89;94344.63;5483266;26;20318;-75
2024/04/21 06:15:44;;;;;;;9.68;7.45;;;;;;;11.00;58.92;94350.91;5481513;26;20039;-75
2024/04/21 06:18:09;;;;;;;10.98;8.88;;;;;;;10.90;59.08;94337.13;5484338;26;19998;-74
2024/04/21 06:20:35;;;;;;;12.57;8.38;;;;;;;10.87;58.52;94348.28;5483830;26;20412;-74
2024/04/21 06:23:01;;;;;;;10.43;8.20;;;;;;;10.94;58.77;94342.47;5481554;26;20366;-74
2024/04/21 06:25:26;;;;;;;12.10;8.60;;;;;;;11.02;58.97;94349.25;5482063;26;20005;-74
2024/04/21 06:27:51;;;;;;;12.98;8.38;;;;;;;11.11;58.73;94351.25;5482792;26;20492;-74
2024/04/21 06:30:17;;;;;;;10.55;8.43;;;;;;;11.13;58.82;94360.59;5485104;26;19991;-74
2024/04/21 06:32:42;;;;;;;12.75;9.15;;;;;;;11.26;58.50;94359.69;5482714;26;20002;-73
2024/04/21 06:35:08;;;;;;;11.40;8.80;;;;;;;11.35;58.37;94354.97;5484793;26;19998;-73
2024/04/21 06:37:34;;;;;;;11.60;8.85;;;;;;;11.42;58.00;94362.94;5483398;26;20002;-73
2024/04/21 06:39:59;;;;;;;11.85;8.63;;;;;;;11.56;57.92;94358.06;5483254;26;19998;-73
2024/04/21 06:42:25;;;;;;;12.07;8.77;;;;;;;11.53;57.66;94356.25;5452372;26;20067;-74
2024/04/21 06:44:50;;;;;;;13.68;8.77;;;;;;;11.60;57.28;94356.69;5482696;26;20344;-73
2024/04/21 06:47:15;;;;;;;9.57;8.40;;;;;;;11.72;57.10;94349.53;5485333;26;20072;-73
2024/04/21 06:49:41;;;;;;;8.70;7.57;;;;;;;11.72;57.10;94355.03;5483458;26;20021;-73
2024/04/21 06:52:06;;;;;;;11.02;7.70;;;;;;;11.68;57.08;94338.66;5452222;26;19990;-73
2024/04/21 06:54:32;;;;;;;11.65;8.90;;;;;;;11.76;57.01;94347.38;5450900;26;20013;-76
2024/04/21 06:56:58;;;;;;;11.15;8.55;;;;;;;11.78;57.35;94347.69;5451598;26;20071;-74
2024/04/21 06:59:24;;;;;;;11.60;9.70;;;;;;;11.81;57.12;94352.28;5482001;26;20028;-74
2024/04/21 07:01:49;;;;;;;13.45;10.07;;;;;;;11.81;57.00;94349.53;5450927;26;19994;-74
2024/04/21 07:04:15;;;;;;;13.73;9.70;;;;;;;11.83;57.32;94341.59;5484493;26;20386;-72
2024/04/21 07:06:41;;;;;;;10.95;9.10;;;;;;;11.94;57.29;94335.63;5481923;26;20318;-73
2024/04/21 07:09:06;;;;;;;10.52;8.77;;;;;;;12.10;57.17;94340.03;5482790;26;20396;-72
2024/04/21 07:11:31;;;;;;;13.85;9.63;;;;;;;12.19;56.86;94338.03;5482465;26;20009;-72
2024/04/21 07:13:57;;;;;;;10.85;8.75;;;;;;;12.19;56.67;94342.78;5484110;26;20067;-73
2024/04/21 07:16:22;;;;;;;13.38;8.82;;;;;;;12.27;56.30;94343.22;5483733;26;20332;-75
2024/04/21 07:18:48;;;;;;;13.27;8.57;;;;;;;12.23;56.49;94341.41;5483010;26;19994;-74
2024/04/21 07:21:14;;;;;;;10.52;8.82;;;;;;;12.26;56.03;94336.97;5482607;26;19998;-75
2024/04/21 07:23:39;;;;;;;11.07;8.95;;;;;;;12.37;55.61;94328.22;5479987;26;19998;-73
2024/04/21 07:26:05;;;;;;;9.65;8.52;;;;;;;12.45;55.36;94330.19;5481664;26;20331;-74
2024/04/21 07:28:30;;;;;;;12.75;9.15;;;;;;;12.60;55.13;94330.28;5479070;26;19998;-73
2024/04/21 07:30:55;;;;;;;11.75;9.70;;;;;;;12.53;55.49;94330.63;5483814;26;20005;-73
2024/04/21 07:33:22;;;;;;;11.85;9.55;;;;;;;12.52;55.66;94333.84;5482330;26;20340;-74
2024/04/21 07:35:48;;;;;;;10.43;8.52;;;;;;;12.41;55.50;94324.06;5482720;26;20002;-73
2024/04/21 07:38:13;;;;;;;11.85;9.23;;;;;;;12.63;55.00;94334.88;5483294;26;20198;-73
2024/04/21 07:40:38;;;;;;;9.52;8.18;;;;;;;12.76;55.28;94332.69;5480212;26;20150;-74
2024/04/21 07:43:04;;;;;;;13.10;9.45;;;;;;;12.87;54.99;94328.66;5482340;26;20009;-73
2024/04/21 07:45:29;;;;;;;9.27;8.07;;;;;;;12.81;54.48;94309.22;5481169;26;19994;-73
2024/04/21 07:47:54;;;;;;;11.45;9.82;;;;;;;13.02;54.01;94319.25;5483834;26;20051;-74
2024/04/21 07:50:21;;;;;;;10.35;8.20;;;;;;;13.13;54.15;94315.97;5481729;26;20005;-78
2024/04/21 07:52:46;;;;;;;9.05;7.05;;;;;;;13.19;51.45;94329.88;5482443;26;20006;-73
2024/04/21 07:55:12;;;;;;;11.15;7.85;;;;;;;13.23;51.84;94311.19;5482755;26;20066;-74
2024/04/21 07:57:37;;;;;;;11.35;7.38;;;;;;;13.25;51.69;94317.78;5480202;26;20424;-73
2024/04/21 08:00:03;;;;;;;10.18;7.60;;;;;;;13.20;53.24;94323.16;5483315;26;20069;-72
2024/04/21 08:02:29;;;;;;;8.52;6.70;;;;;;;12.96;52.01;94312.84;5479022;26;20380;-72
2024/04/21 08:04:54;;;;;;;9.77;7.25;;;;;;;12.94;52.95;94315.28;5450976;26;19994;-74
2024/04/21 08:07:19;;;;;;;10.30;6.72;;;;;;;12.96;53.04;94304.56;5479428;26;19994;-73
2024/04/21 08:09:45;;;;;;;10.88;6.68;;;;;;;13.07;53.26;94308.78;5482703;26;20010;-74
2024/04/21 08:12:10;;;;;;;8.93;6.80;;;;;;;13.00;51.55;94309.91;5480072;26;20001;-74
2024/04/21 08:14:36;;;;;;;9.73;6.43;;;;;;;13.03;51.68;94315.25;5481934;26;20002;-72
2024/04/21 08:17:01;;;;;;;7.80;6.47;;;;;;;12.92;51.76;94300.44;5482597;26;20014;-72
2024/04/21 08:19:27;;;;;;;6.30;5.60;;;;;;;12.99;52.37;94308.38;5481600;26;20004;-72
2024/04/21 08:21:52;;;;;;;8.52;5.70;;;;;;;13.02;52.89;94307.47;5482587;26;19998;-72
2024/04/21 08:24:19;;;;;;;6.28;5.00;;;;;;;12.91;52.29;94312.72;5479966;26;20393;-73
2024/04/21 08:26:45;;;;;;;4.40;3.92;;;;;;;12.82;51.57;94308.00;5480771;26;20378;-72
2024/04/21 08:29:10;;;;;;;7.07;4.78;;;;;;;12.45;52.99;94319.16;5481235;26;20317;-72
2024/04/21 08:31:36;;;;;;;6.13;5.30;;;;;;;12.37;53.52;94322.69;5482404;26;20069;-72
2024/04/21 08:34:02;;;;;;;7.40;5.25;;;;;;;12.15;54.11;94322.88;5481564;26;20009;-73
2024/04/21 08:36:28;;;;;;;5.85;4.78;;;;;;;12.05;53.80;94318.63;5481420;26;20005;-73
2024/04/21 08:38:53;;;;;;;6.45;5.20;;;;;;;12.07;54.11;94321.69;5480620;26;19994;-73
2024/04/21 08:41:21;;;;;;;5.78;4.47;;;;;;;12.12;54.64;94316.31;5482100;26;20003;-73
2024/04/21 08:43:47;;;;;;;4.88;4.38;;;;;;;11.66;55.19;94321.06;5484072;26;20343;-72
2024/04/21 08:46:12;;;;;;;5.05;4.50;;;;;;;11.52;56.32;94311.41;5480497;26;19994;-73
2024/04/21 08:48:38;;;;;;;5.50;4.50;;;;;;;11.65;56.16;94314.81;5485896;26;20325;-72
2024/04/21 08:51:05;;;;;;;6.13;3.90;;;;;;;11.59;56.57;94321.38;5483046;26;20005;-73
2024/04/21 08:53:31;;;;;;;5.38;4.22;;;;;;;11.64;56.11;94312.50;5483451;26;20026;-72
2024/04/21 08:55:59;;;;;;;6.57;4.60;;;;;;;11.58;56.00;94303.31;5484188;26;20005;-73
2024/04/21 08:58:25;;;;;;;4.97;4.07;;;;;;;11.50;56.93;94305.59;5485360;26;20070;-73
2024/04/21 09:00:50;;;;;;;5.60;4.45;;;;;;;11.41;56.81;94300.09;5484256;26;20390;-73
2024/04/21 09:03:16;;;;;;;5.80;4.38;;;;;;;11.46;57.10;94291.22;5481804;26;20397;-72
2024/04/21 09:05:41;;;;;;;6.93;4.78;;;;;;;11.82;57.35;94307.03;5453083;26;20013;-80
2024/04/21 09:08:06;;;;;;;4.40;3.78;;;;;;;12.06;56.73;94312.66;5482265;26;20416;-73
2024/04/21 09:10:33;;;;;;;5.45;3.83;;;;;;;12.41;55.63;94309.53;5483974;26;19994;-74
2024/04/21 09:12:59;;;;;;;4.82;3.60;;;;;;;12.37;53.84;94303.41;5452693;26;20455;-77
2024/04/21 09:15:24;;;;;;;4.05;3.45;;;;;;;12.43;53.31;94302.31;5452246;26;20006;-74
2024/04/21 09:17:49;;;;;;;4.18;3.60;;;;;;;12.69;53.34;94299.19;5484908;26;20016;-73
2024/04/21 09:20:15;;;;;;;4.22;3.83;;;;;;;13.01;53.56;94295.63;5451419;26;20051;-73
2024/04/21 09:22:40;;;;;;;5.72;3.80;;;;;;;13.20;52.90;94292.78;5485213;26;20351;-72
2024/04/21 09:25:06;;;;;;;4.32;3.50;;;;;;;13.36;51.92;94292.41;5481222;26;20066;-73
2024/04/21 09:27:35;;;;;;;3.22;2.58;;;;;;;13.59;50.71;94290.88;5484928;26;19998;-74
2024/04/21 09:30:01;;;;;;;3.88;2.75;;;;;;;13.69;50.31;94297.81;5481787;26;20008;-75
2024/04/21 09:32:28;;;;;;;5.32;2.28;;;;;;;13.79;49.61;94290.25;5451624;26;20118;-75
2024/04/21 09:34:54;;;;;;;2.60;2.13;;;;;;;13.89;48.99;94296.47;5452234;26;20004;-73
2024/04/21 09:37:20;;;;;;;3.25;2.35;;;;;;;14.09;48.24;94288.28;5483470;26;20034;-74
2024/04/21 09:39:50;;;;;;;3.55;2.33;;;;;;;14.09;48.85;94275.22;5452635;26;20518;-72
2024/04/21 09:42:18;;;;;;;3.33;2.20;;;;;;;14.31;47.65;94274.84;5483033;26;20448;-72
2024/04/21 09:44:49;;;;;;;2.97;2.67;;;;;;;14.40;47.61;94276.00;5484795;26;20468;-72
2024/04/21 09:47:16;;;;;;;2.55;2.35;;;;;;;14.19;47.57;94275.13;5482277;26;19994;-72
2024/04/21 09:49:43;;;;;;;5.70;2.78;;;;;;;14.12;48.32;94270.75;5483760;26;19996;-73
2024/04/21 09:52:08;;;;;;;5.80;2.97;;;;;;;14.22;48.50;94269.44;5451995;26;20043;-72
2024/04/21 09:54:34;;;;;;;3.30;2.40;;;;;;;14.22;48.43;94263.13;5480788;26;20002;-73
2024/04/21 09:57:15;;;;;;;4.80;3.20;;;;;;;14.25;48.50;94270.47;5485136;26;20006;-74
2024/04/21 09:59:43;;;;;;;3.60;3.03;;;;;;;14.28;47.32;94275.06;5450638;26;20497;-73
2024/04/21 10:02:30;;;;;;;2.90;2.60;;;;;;;13.62;47.16;94272.59;5483867;26;19990;-74
2024/04/21 10:04:59;;;;;;;3.47;2.95;;;;;;;13.28;48.17;94269.91;5465144;26;19998;-73
2024/04/21 10:07:25;;;;;;;4.55;2.83;;;;;;;13.44;48.08;94279.78;5482473;26;19990;-77
2024/04/21 10:09:52;;;;;;;4.28;3.50;;;;;;;13.51;48.80;94273.88;5452095;26;19998;-76
2024/04/21 10:12:19;;;;;;;4.35;3.80;;;;;;;13.52;49.89;94277.41;5450855;26;20393;-76
2024/04/21 10:14:45;;;;;;;6.75;3.40;;;;;;;13.55;51.33;94268.19;5482399;26;20014;-83
2024/04/21 10:17:10;;;;;;;4.18;3.38;;;;;;;13.63;52.05;94276.88;5450752;26;19994;-73
2024/04/21 10:19:36;;;;;;;3.45;3.15;;;;;;;13.45;51.41;94253.69;5484379;26;20005;-74
2024/04/21 10:22:03;;;;;;;5.68;3.33;;;;;;;13.44;51.10;94263.19;5483745;26;20009;-73
2024/04/21 10:24:30;;;;;;;5.15;3.90;;;;;;;13.41;50.89;94253.09;5481559;26;19994;-75
2024/04/21 10:26:59;;;;;;;4.35;3.42;;;;;;;13.28;51.37;94258.09;5484125;26;19990;-76
2024/04/21 10:29:29;;;;;;;5.10;3.92;;;;;;;13.35;51.36;94246.69;5450535;26;20413;-74
2024/04/21 10:31:54;;;;;;;4.63;3.70;;;;;;;13.42;51.41;94249.13;5482777;26;19998;-73
2024/04/21 10:34:19;;;;;;;4.15;3.25;;;;;;;13.54;50.54;94242.56;5451049;26;20350;-74
2024/04/21 10:36:46;;;;;;;5.55;3.63;;;;;;;13.64;50.85;94240.47;5484025;26;20301;-73
2024/04/21 10:39:22;;;;;;;4.43;3.08;;;;;;;13.78;50.18;94239.00;5451482;26;20066;-74
2024/04/21 10:41:48;;;;;;;5.70;3.08;;;;;;;13.95;49.11;94236.53;5481431;26;20009;-73
2024/04/21 10:44:13;;;;;;;5.20;3.22;;;;;;;13.93;49.39;94225.19;5482275;26;20391;-72
2024/04/21 10:46:39;;;;;;;4.80;3.08;;;;;;;13.95;48.39;94223.47;5480504;26;20001;-73
2024/04/21 10:49:05;;;;;;;3.92;2.83;;;;;;;14.02;48.57;94222.34;5452279;26;20170;-73
2024/04/21 10:51:31;;;;;;;4.97;3.55;;;;;;;13.98;48.33;94230.03;5480753;26;20006;-73
2024/04/21 10:53:56;;;;;;;4.15;3.65;;;;;;;14.15;48.67;94231.09;5482268;26;19998;-73
2024/04/21 10:56:22;;;;;;;4.95;3.35;;;;;;;14.22;48.21;94233.50;5482835;26;19994;-73
2024/04/21 10:58:48;;;;;;;4.15;2.97;;;;;;;14.30;47.75;94222.81;5481385;26;20002;-73
2024/04/21 11:01:14;;;;;;;4.22;3.28;;;;;;;14.40;47.08;94220.69;5481879;26;20350;-74
2024/04/21 11:03:43;;;;;;;7.35;3.05;;;;;;;14.30;46.68;94226.31;5481039;26;19990;-73
2024/04/21 11:06:09;;;;;;;5.47;3.22;;;;;;;14.22;46.52;94235.47;5484485;26;20328;-72
2024/04/21 11:08:35;;;;;;;4.70;3.20;;;;;;;14.38;46.46;94243.28;5481347;26;20093;-72
2024/04/21 11:11:01;;;;;;;5.00;3.10;;;;;;;14.25;46.00;94242.81;5483468;26;20006;-74
2024/04/21 11:13:27;;;;;;;5.95;3.20;;;;;;;13.82;47.00;94236.81;5480527;26;20435;-74
2024/04/21 11:15:52;;;;;;;3.33;3.03;;;;;;;13.49;47.36;94232.19;5451058;26;20397;-74
2024/04/21 11:18:17;;;;;;;3.80;2.92;;;;;;;13.37;47.72;94241.47;5481701;26;19994;-72
2024/04/21 11:20:43;;;;;;;3.10;2.75;;;;;;;13.34;47.84;94239.66;5482434;26;20005;-73
2024/04/21 11:23:16;;;;;;;6.57;3.42;;;;;;;13.26;48.20;94224.69;5482034;26;20437;-72
2024/04/21 11:25:47;;;;;;;4.03;3.63;;;;;;;13.20;49.16;94237.59;5479247;26;19998;-79
2024/04/21 11:28:14;;;;;;;5.03;3.75;;;;;;;12.81;50.61;94228.47;5483691;26;20014;-72